Time;durP1;ratioP1;P1;durP2;ratioP2;P2;SDS_P1;SDS_P2;PMS_P1;PMS_P2;Temp;Humidity;BMP_temperature;BMP_pressure;BME280_temperature;BME280_humidity;BME280_pressure;Samples;Min_cycle;Max_cycle;Signal;HPM_P1;HPM_P2
2022/05/14 00:00:18;;;;;;;26.58;15.73;;;;;;;;;;5083852;28;20016;-63
2022/05/14 00:02:44;;;;;;;23.92;15.65;;;;;;;;;;5065739;28;20024;-64
2022/05/14 00:05:10;;;;;;;27.52;15.40;;;;;;;;;;5072417;28;20435;-64
2022/05/14 00:07:36;;;;;;;25.88;15.57;;;;;;;;;;5093584;28;20043;-64
2022/05/14 00:10:03;;;;;;;23.50;15.60;;;;;;;;;;5093423;28;20020;-65
2022/05/14 00:15:14;;;;;;;25.58;15.00;;;;;;;;;;5033523;28;20048;-66
2022/05/14 00:17:40;;;;;;;24.77;15.02;;;;;;;;;;5033490;28;20449;-65
2022/05/14 00:20:06;;;;;;;29.60;14.63;;;;;;;;;;5031518;28;20532;-65
2022/05/14 00:22:32;;;;;;;21.45;14.32;;;;;;;;;;5033153;28;20431;-64
2022/05/14 00:24:58;;;;;;;23.40;15.50;;;;;;;;;;5032977;28;20044;-63
2022/05/14 00:27:24;;;;;;;26.63;14.95;;;;;;;;;;5031811;28;20021;-64
2022/05/14 00:29:50;;;;;;;23.90;14.93;;;;;;;;;;5033041;28;20401;-64
2022/05/14 00:32:16;;;;;;;23.48;15.30;;;;;;;;;;5033493;28;20030;-65
2022/05/14 00:34:42;;;;;;;26.15;14.88;;;;;;;;;;5032588;28;20032;-63
2022/05/14 00:37:09;;;;;;;22.45;14.85;;;;;;;;;;5031572;28;20026;-63
2022/05/14 00:39:35;;;;;;;34.50;16.23;;;;;;;;;;5031962;28;20485;-66
2022/05/14 00:42:01;;;;;;;22.63;14.63;;;;;;;;;;5031924;28;20021;-62
2022/05/14 00:44:27;;;;;;;23.50;14.90;;;;;;;;;;5033391;28;20029;-62
2022/05/14 00:46:59;;;;;;;24.70;14.55;;;;;;;;;;5033261;28;20143;-64
2022/05/14 00:49:25;;;;;;;22.65;14.18;;;;;;;;;;5032830;28;20109;-64
2022/05/14 00:51:51;;;;;;;22.35;14.52;;;;;;;;;;5031813;28;20029;-64
2022/05/14 00:54:24;;;;;;;26.92;14.40;;;;;;;;;;5031968;28;20025;-64
2022/05/14 00:56:53;;;;;;;26.63;15.50;;;;;;;;;;5032000;28;20033;-64
2022/05/14 00:59:20;;;;;;;25.58;14.43;;;;;;;;;;5031586;28;20106;-65
2022/05/14 01:01:48;;;;;;;26.50;14.23;;;;;;;;;;5031440;28;20114;-64
2022/05/14 01:04:14;;;;;;;24.92;14.63;;;;;;;;;;5031576;28;20025;-65
2022/05/14 01:06:42;;;;;;;24.58;14.38;;;;;;;;;;5032644;28;20083;-64
2022/05/14 01:09:08;;;;;;;23.02;14.80;;;;;;;;;;5032622;28;20104;-64
2022/05/14 01:11:36;;;;;;;22.90;13.43;;;;;;;;;;5031408;28;20064;-62
2022/05/14 01:14:03;;;;;;;27.55;15.40;;;13.40;99.90;;;;;;5032474;28;20129;-63
2022/05/14 01:16:29;;;;;;;24.25;14.32;;;11.50;99.90;;;;;;5031168;28;20405;-65
2022/05/14 01:18:55;;;;;;;28.48;14.77;;;11.30;99.90;;;;;;5032250;28;20026;-64
2022/05/14 01:21:39;;;;;;;22.55;13.93;;;11.20;99.90;;;;;;5032647;28;20469;-65
2022/05/14 01:27:11;;;;;;;23.60;13.68;;;11.10;99.90;;;;;;5032541;28;20040;-65
2022/05/14 01:29:40;;;;;;;27.98;14.15;;;11.10;99.90;;;;;;5031003;28;20029;-64
2022/05/14 01:32:06;;;;;;;25.58;13.43;;;11.10;99.90;;;;;;5030845;28;20026;-63
2022/05/14 01:34:33;;;;;;;22.02;13.32;;;11.00;99.90;;;;;;5032354;28;20025;-65
2022/05/14 01:36:59;;;;;;;23.15;13.70;;;11.00;99.90;;;;;;5032210;28;20028;-67
2022/05/14 01:39:26;;;;;;;24.08;13.65;;;10.90;99.90;;;;;;5031776;28;20108;-65
2022/05/14 01:41:52;;;;;;;23.00;13.48;;;10.90;99.90;;;;;;5030782;28;20035;-64
2022/05/14 01:44:19;;;;;;;28.00;16.42;;;10.90;99.90;;;;;;5032454;28;20022;-65
2022/05/14 01:46:44;;;;;;;21.35;13.18;;;10.90;99.90;;;;;;5031034;28;20099;-65
2022/05/14 01:49:11;;;;;;;30.63;12.80;;;10.90;99.90;;;;;;5030894;28;20029;-65
2022/05/14 01:51:36;;;;;;;25.25;13.73;;;11.00;99.90;;;;;;5031374;28;20029;-65
2022/05/14 01:54:04;;;;;;;24.05;13.32;;;11.00;99.90;;;;;;5030671;28;20108;-65
2022/05/14 01:56:30;;;;;;;27.00;12.98;;;10.90;99.90;;;;;;5031104;28;20037;-66
2022/05/14 01:58:56;;;;;;;22.83;12.10;;;11.00;99.90;;;;;;5030540;28;20124;-65
2022/05/14 02:01:39;;;;;;;27.38;14.52;;;11.00;99.90;;;;;;5032115;28;20026;-67
2022/05/14 02:04:08;;;;;;;21.15;11.68;;;10.90;99.90;;;;;;5030837;28;20026;-64
2022/05/14 02:06:34;;;;;;;20.50;11.57;;;10.90;99.90;;;;;;5031933;28;20025;-65
2022/05/14 02:09:00;;;;;;;25.27;12.88;;;10.90;99.90;;;;;;5032141;28;20033;-65
2022/05/14 02:11:27;;;;;;;21.33;11.73;;;11.00;99.90;;;;;;5031966;28;20057;-64
2022/05/14 02:13:54;;;;;;;21.63;12.02;;;10.90;99.90;;;;;;5031518;28;20056;-65
2022/05/14 02:16:19;;;;;;;21.60;11.70;;;10.90;99.90;;;;;;5030781;28;20025;-65
2022/05/14 02:18:45;;;;;;;24.23;12.70;;;10.80;99.90;;;;;;5030494;28;20025;-66
2022/05/14 02:21:12;;;;;;;21.60;11.27;;;10.80;99.90;;;;;;5031743;28;20021;-63
2022/05/14 02:23:38;;;;;;;22.58;11.55;;;10.70;99.90;;;;;;5031936;28;20057;-64
2022/05/14 02:26:06;;;;;;;24.65;12.40;;;10.60;99.90;;;;;;5031815;28;20041;-64
2022/05/14 02:28:33;;;;;;;25.98;12.60;;;10.60;99.90;;;;;;5031521;28;20108;-64
2022/05/14 02:30:59;;;;;;;21.55;11.23;;;10.60;99.90;;;;;;5030356;28;20025;-66
2022/05/14 02:33:24;;;;;;;18.75;10.77;;;10.50;99.90;;;;;;5030213;28;20029;-65
2022/05/14 02:35:50;;;;;;;20.85;11.68;;;10.40;99.90;;;;;;5030748;28;20033;-66
2022/05/14 02:38:16;;;;;;;21.95;11.73;;;10.40;99.90;;;;;;5030227;28;20025;-63
2022/05/14 02:40:42;;;;;;;21.75;10.70;;;10.50;99.90;;;;;;5031728;28;20026;-64
2022/05/14 02:43:09;;;;;;;22.38;11.50;;;10.50;99.90;;;;;;5031289;28;20026;-63
2022/05/14 02:45:35;;;;;;;19.88;10.63;;;10.70;99.90;;;;;;5030553;28;20393;-64
2022/05/14 02:48:00;;;;;;;21.10;11.60;;;10.80;99.90;;;;;;5031521;28;20022;-64
2022/05/14 02:50:26;;;;;;;23.73;10.95;;;10.80;99.90;;;;;;5031517;28;20033;-68
2022/05/14 02:52:52;;;;;;;20.17;10.85;;;10.80;99.90;;;;;;5030316;28;20021;-63
2022/05/14 02:55:18;;;;;;;21.92;10.98;;;10.90;99.90;;;;;;5031524;28;20480;-63
2022/05/14 02:57:44;;;;;;;20.15;10.55;;;10.90;99.90;;;;;;5030208;28;20124;-64
2022/05/14 03:00:13;;;;;;;24.90;11.77;;;11.00;99.90;;;;;;5031397;28;20116;-64
2022/05/14 03:02:38;;;;;;;21.75;10.50;;;11.00;99.90;;;;;;5033761;28;20055;-64
2022/05/14 03:05:05;;;;;;;21.85;10.38;;;10.90;99.90;;;;;;5035329;28;20044;-64
2022/05/14 03:07:31;;;;;;;23.63;10.77;;;10.80;99.90;;;;;;5035261;28;20036;-64
2022/05/14 03:09:56;;;;;;;19.52;10.23;;;10.80;99.90;;;;;;5035047;28;20021;-63
2022/05/14 03:12:23;;;;;;;21.20;11.43;;;10.80;99.90;;;;;;5034664;28;20034;-64
2022/05/14 03:14:50;;;;;;;22.60;11.70;;;10.80;99.90;;;;;;5035064;28;20029;-65
2022/05/14 03:17:17;;;;;;;21.70;10.43;;;10.80;99.90;;;;;;5034897;28;20493;-64
2022/05/14 03:19:43;;;;;;;20.10;10.40;;;10.70;99.90;;;;;;5033466;28;20120;-65
2022/05/14 03:22:09;;;;;;;20.33;10.82;;;10.70;99.90;;;;;;5033803;28;20060;-64
2022/05/14 03:24:38;;;;;;;20.75;10.35;;;10.70;99.90;;;;;;5034897;28;20018;-65
2022/05/14 03:27:04;;;;;;;;;;;10.70;99.90;;;;;;5035164;28;20053;-65
2022/05/14 03:29:30;;;;;;;20.70;10.23;;;10.60;99.90;;;;;;5033288;28;19915;-66
2022/05/14 03:31:57;;;;;;;20.83;11.88;;;10.60;99.90;;;;;;5034438;28;20060;-64
2022/05/14 03:34:24;;;;;;;22.63;11.75;;;10.60;99.90;;;;;;5034277;28;20026;-65
2022/05/14 03:36:50;;;;;;;20.95;10.98;;;10.50;99.90;;;;;;5034564;28;20033;-62
2022/05/14 03:39:16;;;;;;;20.95;10.77;;;10.50;99.90;;;;;;5034216;28;20183;-64
2022/05/14 03:41:42;;;;;;;19.65;10.70;;;10.40;99.90;;;;;;5034449;28;20025;-64
2022/05/14 03:44:08;;;;;;;21.85;13.40;;;10.40;99.90;;;;;;5033158;28;20021;-65
2022/05/14 03:46:34;;;;;;;21.70;11.55;;;10.40;99.90;;;;;;5034613;28;20538;-64
2022/05/14 03:49:00;;;;;;;17.48;10.23;;;10.40;99.90;;;;;;5032778;28;20036;-64
2022/05/14 03:51:26;;;;;;;22.00;10.25;;;10.30;99.90;;;;;;5033140;28;20029;-64
2022/05/14 03:53:52;;;;;;;19.67;9.90;;;10.40;99.90;;;;;;5034586;28;20187;-64
2022/05/14 03:56:26;;;;;;;22.75;10.88;;;10.40;99.90;;;;;;5034520;28;20067;-65
2022/05/14 03:58:52;;;;;;;20.77;10.55;;;10.40;99.90;;;;;;5033133;28;20060;-64
2022/05/14 04:01:18;;;;;;;19.90;9.68;;;10.50;99.90;;;;;;5033218;28;20053;-64
2022/05/14 04:03:45;;;;;;;20.77;9.68;;;10.60;99.90;;;;;;5032895;28;20112;-64
2022/05/14 04:06:11;;;;;;;21.58;10.50;;;10.70;99.90;;;;;;5032876;28;20036;-65
2022/05/14 04:08:37;;;;;;;20.88;10.15;;;10.70;99.90;;;;;;5033880;28;20036;-65
2022/05/14 04:11:04;;;;;;;20.65;9.50;;;10.70;99.90;;;;;;5034113;28;20036;-65
2022/05/14 04:13:30;;;;;;;22.77;9.38;;;10.80;99.90;;;;;;5033645;28;20038;-64
2022/05/14 04:15:55;;;;;;;19.33;10.07;;;10.90;99.90;;;;;;5033771;28;20087;-64
2022/05/14 04:18:24;;;;;;;24.13;10.60;;;11.00;99.90;;;;;;5032304;28;20033;-64
2022/05/14 04:20:53;;;;;;;;;;;11.10;99.90;;;;;;5032938;28;20025;-64
2022/05/14 04:23:18;;;;;;;;;;;11.20;99.90;;;;;;5034101;28;19928;-65
2022/05/14 04:25:44;;;;;;;25.88;11.90;;;11.20;99.90;;;;;;5032490;28;19920;-64
2022/05/14 04:28:10;;;;;;;23.23;11.18;;;11.30;99.90;;;;;;5033739;28;20028;-64
2022/05/14 04:30:35;;;;;;;24.42;10.25;;;11.30;99.90;;;;;;5033425;28;20481;-65
2022/05/14 04:33:01;;;;;;;19.90;10.50;;;11.40;99.90;;;;;;5033411;28;20026;-65
2022/05/14 04:35:27;;;;;;;21.90;10.00;;;11.40;99.90;;;;;;5032300;28;20025;-65
2022/05/14 04:37:52;;;;;;;20.70;10.27;;;11.50;99.90;;;;;;5032206;28;20642;-64
2022/05/14 04:40:18;;;;;;;21.60;10.15;;;11.50;99.90;;;;;;5031928;28;20477;-62
2022/05/14 04:42:43;;;;;;;20.40;9.73;;;11.50;99.90;;;;;;5033288;28;20029;-65
2022/05/14 04:45:10;;;;;;;21.70;8.95;;;11.50;99.90;;;;;;5033330;28;20500;-65
2022/05/14 04:47:38;;;;;;;21.40;10.15;;;11.60;99.90;;;;;;5033376;28;20079;-63
2022/05/14 04:50:06;;;;;;;21.73;9.68;;;11.60;99.90;;;;;;5033501;28;20396;-64
2022/05/14 04:52:32;;;;;;;20.63;9.68;;;11.60;99.90;;;;;;5032275;28;20120;-64
2022/05/14 04:54:58;;;;;;;22.27;9.88;;;11.60;99.90;;;;;;5033239;28;20072;-65
2022/05/14 04:57:23;;;;;;;20.33;10.35;;;11.50;99.90;;;;;;5032115;28;20040;-65
2022/05/14 04:59:49;;;;;;;19.08;10.13;;;11.60;99.90;;;;;;5031694;28;20033;-64
2022/05/14 05:04:59;;;;;;;20.05;9.88;;;11.50;99.90;;;;;;5033543;28;20092;-64
2022/05/14 05:07:24;;;;;;;24.10;10.48;;;11.40;99.90;;;;;;5033001;28;20022;-63
2022/05/14 05:09:50;;;;;;;17.98;9.82;;;11.40;99.90;;;;;;5031648;28;20512;-64
2022/05/14 05:12:16;;;;;;;21.25;10.85;;;11.30;99.90;;;;;;5031412;28;20037;-65
2022/05/14 05:14:42;;;;;;;20.15;10.95;;;11.40;99.90;;;;;;5032960;28;20450;-62
2022/05/14 05:17:08;;;;;;;21.33;10.63;;;11.40;99.90;;;;;;5032799;28;20056;-63
2022/05/14 05:19:34;;;;;;;18.30;10.43;;;11.30;99.90;;;;;;5031311;28;20084;-63
2022/05/14 05:22:00;;;;;;;21.15;9.40;;;11.40;99.90;;;;;;5031391;28;20029;-59
2022/05/14 05:24:25;;;;;;;20.30;10.07;;;11.40;99.90;;;;;;5031048;28;20022;-62
2022/05/14 05:26:51;;;;;;;21.83;10.55;;;11.50;99.90;;;;;;5031564;28;20048;-63
2022/05/14 05:29:17;;;;;;;18.30;10.48;;;11.50;99.90;;;;;;5032627;28;20499;-64
2022/05/14 05:31:43;;;;;;;19.00;10.27;;;11.60;99.90;;;;;;5032685;28;20022;-63
2022/05/14 05:34:09;;;;;;;23.20;10.70;;;11.60;99.90;;;;;;5032937;28;20042;-64
2022/05/14 05:36:34;;;;;;;20.13;11.18;;;11.60;99.90;;;;;;5031406;28;20054;-65
2022/05/14 05:39:00;;;;;;;23.30;11.63;;;11.60;99.90;;;;;;5031201;28;20108;-64
2022/05/14 05:41:26;;;;;;;23.85;11.07;;;11.60;99.90;;;;;;5031228;28;20384;-65
2022/05/14 05:43:51;;;;;;;20.00;10.68;;;11.70;99.90;;;;;;5031113;28;20030;-64
2022/05/14 05:46:17;;;;;;;21.80;10.50;;;11.70;99.90;;;;;;5031340;28;20025;-65
2022/05/14 05:48:43;;;;;;;21.58;10.05;;;11.80;99.90;;;;;;5032508;28;20457;-65
2022/05/14 05:51:10;;;;;;;22.65;11.48;;;11.90;99.90;;;;;;5032744;28;20030;-66
2022/05/14 05:59:05;;;;;;;23.10;10.88;;;12.40;99.90;;;;;;5032345;28;20036;-63
2022/05/14 06:01:31;;;;;;;22.70;11.02;;;12.40;99.90;;;;;;5032241;28;20440;-65
2022/05/14 06:03:57;;;;;;;20.33;11.13;;;12.50;99.90;;;;;;5032339;28;20083;-64
2022/05/14 06:06:23;;;;;;;23.13;11.18;;;12.50;99.90;;;;;;5030786;28;20477;-64
2022/05/14 06:08:49;;;;;;;21.25;11.25;;;12.60;99.90;;;;;;5030927;28;20029;-64
2022/05/14 06:11:15;;;;;;;22.40;12.55;;;12.70;99.90;;;;;;5032663;28;20108;-62
2022/05/14 06:13:43;;;;;;;21.85;11.75;;;12.70;99.90;;;;;;5091235;22;20036;-64
2022/05/14 06:16:09;;;;;;;21.52;11.40;;;12.70;99.90;;;;;;5092500;28;20484;-64
2022/05/14 06:18:35;;;;;;;20.73;12.02;;;12.70;99.90;;;;;;5074006;28;20111;-64
2022/05/14 06:21:01;;;;;;;20.13;11.80;;;12.70;99.90;;;;;;5092495;28;20495;-64
2022/05/14 06:23:26;;;;;;;23.90;12.30;;;12.70;99.90;;;;;;5092505;28;20016;-65
2022/05/14 06:25:52;;;;;;;21.52;11.93;;;12.70;99.90;;;;;;5074347;28;20388;-64
2022/05/14 06:28:17;;;;;;;23.38;11.93;;;12.70;99.90;;;;;;5071284;28;20022;-64
2022/05/14 06:30:43;;;;;;;27.27;12.40;;;12.80;99.90;;;;;;5089780;28;20729;-64
2022/05/14 06:33:12;;;;;;;25.48;11.95;;;12.90;99.90;;;;;;5071438;28;20040;-65
2022/05/14 06:35:38;;;;;;;22.42;11.68;;;13.00;99.90;;;;;;5062010;28;20100;-65
2022/05/14 06:38:05;;;;;;;23.38;12.18;;;13.10;99.90;;;;;;5095717;28;20032;-65
2022/05/14 06:40:31;;;;;;;24.80;12.65;;;13.20;99.90;;;;;;5095984;28;20027;-63
2022/05/14 06:42:57;;;;;;;25.25;13.32;;;13.20;99.90;;;;;;5095791;28;20356;-65
2022/05/14 06:45:24;;;;;;;22.95;12.23;;;13.20;99.90;;;;;;5078100;28;20028;-65
2022/05/14 06:47:50;;;;;;;23.92;12.05;;;13.10;99.90;;;;;;5075324;28;20025;-65
2022/05/14 06:50:15;;;;;;;21.13;12.75;;;13.10;99.90;;;;;;5075518;28;20384;-65
2022/05/14 06:52:44;;;;;;;20.80;12.45;;;13.10;99.90;;;;;;5056884;28;20050;-65
2022/05/14 06:55:14;;;;;;;23.75;12.55;;;13.10;99.90;;;;;;5075108;28;20017;-65
2022/05/14 06:57:41;;;;;;;23.70;13.77;;;13.00;99.90;;;;;;5075470;28;20048;-65
2022/05/14 07:00:07;;;;;;;20.60;13.35;;;13.10;99.90;;;;;;5074999;28;20048;-65
2022/05/14 07:02:35;;;;;;;24.33;12.77;;;13.20;99.90;;;;;;5075042;28;20020;-65
2022/05/14 07:07:46;;;;;;;25.13;12.35;;;13.30;99.90;;;;;;5095635;28;20078;-65
2022/05/14 07:10:43;;;;;;;22.35;12.25;;;13.30;99.90;;;;;;5095216;28;20028;-65
2022/05/14 07:13:09;;;;;;;21.90;12.43;;;13.40;99.90;;;;;;5068154;28;20404;-65
2022/05/14 07:15:34;;;;;;;23.10;13.77;;;13.40;99.90;;;;;;5077023;28;20024;-63
2022/05/14 07:18:00;;;;;;;24.20;12.98;;;13.50;99.90;;;;;;5095406;28;20028;-65
2022/05/14 07:28:20;;;;;;;;;;;;;;;;;;;;;
2022/05/14 07:30:54;;;;;;;25.77;13.70;;;13.70;99.90;;;;;;4991646;28;20041;-64
2022/05/14 07:33:49;;;;;;;27.92;12.95;;;13.70;99.90;;;;;;5032712;28;20037;-65
2022/05/14 07:36:19;;;;;;;24.60;12.73;;;13.80;99.90;;;;;;5009546;28;20064;-65
2022/05/14 07:38:46;;;;;;;22.25;12.63;;;;;;;;;;5031919;28;20077;-64
2022/05/14 07:41:13;;;;;;;27.02;13.20;;;13.90;99.90;;;;;;5034732;28;20120;-65
2022/05/14 07:43:42;;;;;;;27.05;12.80;;;14.20;99.90;;;;;;5056599;28;20379;-65
2022/05/14 07:46:14;;;;;;;28.63;13.90;;;14.20;99.90;;;;;;5073783;28;20494;-65
2022/05/14 07:48:41;;;;;;;25.35;12.98;;;14.30;99.90;;;;;;5074637;28;20032;-65
2022/05/14 07:51:09;;;;;;;31.23;12.90;;;14.30;99.90;;;;;;5056040;28;20025;-64
2022/05/14 07:53:36;;;;;;;29.35;12.65;;;14.40;99.90;;;;;;5056218;28;20025;-64
2022/05/14 07:56:04;;;;;;;29.67;13.90;;;14.40;99.90;;;;;;5074010;28;20033;-64
2022/05/14 07:58:30;;;;;;;25.58;12.57;;;14.40;99.90;;;;;;5074160;28;20028;-65
2022/05/14 08:00:56;;;;;;;26.20;13.10;;;14.60;99.90;;;;;;5056094;28;20090;-65
2022/05/14 08:03:24;;;;;;;25.40;13.68;;;14.60;99.90;;;;;;5070842;28;20024;-69
2022/05/14 08:05:56;;;;;;;24.63;13.93;;;;;;;;;;5094572;28;20020;-68
2022/05/14 08:08:22;;;;;;;23.08;12.30;;;;;;;;;;5076019;28;20472;-67
2022/05/14 08:10:49;;;;;;;27.85;12.20;;;14.60;99.90;;;;;;5094484;28;20031;-68
2022/05/14 08:13:17;;;;;;;27.85;13.68;;;14.90;99.90;;;;;;5093688;28;20162;-68
2022/05/14 08:15:48;;;;;;;25.73;12.75;;;15.10;99.90;;;;;;5076262;28;20020;-68
2022/05/14 08:18:15;;;;;;;29.45;14.70;;;15.20;99.90;;;;;;5094429;28;20024;-68
2022/05/14 08:20:45;;;;;;;24.92;13.95;;;15.20;99.90;;;;;;5093955;28;20031;-69
2022/05/14 08:25:59;;;;;;;24.33;13.50;;;15.40;99.90;;;;;;5094155;28;20049;-68
2022/05/14 08:28:24;;;;;;;26.02;15.20;;;15.60;99.90;;;;;;5093266;28;20027;-69
2022/05/14 08:30:50;;;;;;;23.77;12.45;;;15.60;99.90;;;;;;5073495;28;20025;-68
2022/05/14 08:33:16;;;;;;;26.80;13.48;;;15.50;99.90;;;;;;5055480;28;20497;-68
2022/05/14 08:35:42;;;;;;;28.55;14.00;;;15.50;99.90;;;;;;5055484;28;20025;-68
2022/05/14 08:38:11;;;;;;;32.63;15.57;;;15.60;99.90;;;;;;5054798;28;20021;-68
2022/05/14 08:40:39;;;;;;;25.73;14.40;;;;;;;;;;5073105;28;20024;-68
2022/05/14 08:43:15;;;;;;;28.08;13.63;;;15.70;99.90;;;;;;5072983;28;20021;-69
2022/05/14 08:45:41;;;;;;;27.92;13.48;;;16.10;99.90;;;;;;5073066;28;20067;-68
2022/05/14 08:48:19;;;;;;;28.45;12.85;;;16.20;99.90;;;;;;5054720;28;20048;-68
2022/05/14 08:50:52;;;;;;;30.58;13.13;;;16.30;99.90;;;;;;5083178;28;20024;-68
2022/05/14 08:53:23;;;;;;;30.05;14.35;;;16.30;99.90;;;;;;5093052;28;20081;-67
2022/05/14 08:56:04;;;;;;;25.23;12.75;;;;;;;;;;5092978;28;20021;-68
2022/05/14 08:58:50;;;;;;;24.20;13.00;;;16.40;99.90;;;;;;5092162;28;20077;-69
2022/05/14 09:01:22;;;;;;;23.27;13.63;;;16.80;99.90;;;;;;5092833;28;20687;-63
2022/05/14 09:03:48;;;;;;;22.85;13.02;;;16.90;99.90;;;;;;5092597;28;20024;-63
2022/05/14 09:06:14;;;;;;;23.85;13.25;;;17.10;99.90;;;;;;5092786;28;20089;-63
2022/05/14 09:08:40;;;;;;;26.60;13.07;;;17.40;99.90;;;;;;5092617;28;20095;-62
2022/05/14 09:11:16;;;;;;;29.38;14.27;;;17.50;99.90;;;;;;5092685;28;20031;-65
2022/05/14 09:13:47;;;;;;;24.73;12.35;;;17.60;99.90;;;;;;5091998;28;20101;-63
2022/05/14 09:16:39;;;;;;;23.50;11.93;;;17.70;99.90;;;;;;5092579;28;20099;-64
2022/05/14 09:19:16;;;;;;;21.23;13.30;;;17.60;99.90;;;;;;5087012;28;20468;-63
2022/05/14 09:21:51;;;;;;;23.25;13.82;;;17.60;99.90;;;;;;5074540;28;20090;-65
2022/05/14 09:24:25;;;;;;;24.77;12.48;;;17.60;99.90;;;;;;5092411;28;20052;-65
2022/05/14 09:26:53;;;;;;;26.13;13.15;;;17.70;99.90;;;;;;5092240;28;20020;-64
2022/05/14 09:29:27;;;;;;;29.45;13.55;;;17.70;99.90;;;;;;5092182;28;20066;-65
2022/05/14 09:31:58;;;;;;;25.35;13.45;;;17.70;99.90;;;;;;5091835;28;20493;-64
2022/05/14 09:34:25;;;;;;;26.00;13.18;;;17.70;99.90;;;;;;5092205;28;20395;-63
2022/05/14 09:36:51;;;;;;;24.00;12.93;;;17.70;99.90;;;;;;5092501;28;20372;-65
2022/05/14 09:39:22;;;;;;;21.98;12.07;;;17.70;99.90;;;;;;5092116;28;20024;-65
2022/05/14 09:41:52;;;;;;;26.48;11.93;;;17.70;99.90;;;;;;5092189;28;20031;-64
2022/05/14 09:44:27;;;;;;;24.15;13.05;;;17.60;99.90;;;;;;5091506;28;20429;-65
2022/05/14 09:47:05;;;;;;;22.50;12.75;;;17.60;99.90;;;;;;5073654;28;20444;-64
2022/05/14 09:49:31;;;;;;;27.35;13.02;;;17.80;99.90;;;;;;5092206;28;20030;-65
2022/05/14 09:52:04;;;;;;;23.10;12.80;;;18.30;99.90;;;;;;5092361;28;20047;-65
2022/05/14 09:54:41;;;;;;;26.95;13.23;;;18.60;99.90;;;;;;5072996;28;20027;-65
2022/05/14 09:57:38;;;;;;;25.08;13.05;;;18.80;99.90;;;;;;5073070;28;20115;-65
2022/05/14 10:00:22;;;;;;;23.45;12.57;;;18.70;99.90;;;;;;5091107;28;20063;-65
2022/05/14 10:02:57;;;;;;;28.15;13.00;;;18.80;99.90;;;;;;5087908;28;20020;-65
2022/05/14 10:05:22;;;;;;;25.45;12.77;;;18.90;99.90;;;;;;5086559;28;20012;-65
2022/05/14 10:07:53;;;;;;;25.15;11.98;;;18.90;99.90;;;;;;5090541;28;20133;-65
2022/05/14 10:10:40;;;;;;;22.55;11.85;;;19.20;99.90;;;;;;5090842;28;20036;-66
2022/05/14 10:13:24;;;;;;;24.27;12.80;;;19.30;99.90;;;;;;5091347;28;20040;-65
2022/05/14 10:16:10;;;;;;;25.05;13.88;;;19.30;99.90;;;;;;5073088;28;20045;-65
2022/05/14 10:18:48;;;;;;;26.98;13.55;;;19.10;99.90;;;;;;5090468;28;20038;-65
2022/05/14 10:21:28;;;;;;;27.77;12.68;;;18.90;99.90;;;;;;5072525;28;20027;-65
2022/05/14 10:27:54;;;;;;;21.05;12.07;;;19.50;99.90;;;;;;4989130;28;20115;-64
2022/05/14 10:30:24;;;;;;;23.90;12.00;;;19.80;99.90;;;;;;5074336;28;20032;-65
2022/05/14 10:32:56;;;;;;;24.13;12.40;;;20.20;99.90;;;;;;5053051;28;20017;-65
2022/05/14 10:35:34;;;;;;;28.88;13.50;;;20.30;99.60;;;;;;5052571;28;20054;-65
2022/05/14 10:38:18;;;;;;;22.63;11.90;;;20.40;99.00;;;;;;5070125;28;20067;-65
2022/05/14 10:40:50;;;;;;;23.55;12.10;;;20.50;98.50;;;;;;5070175;28;20039;-65
2022/05/14 10:43:38;;;;;;;23.60;11.73;;;20.40;97.80;;;;;;5070245;28;20532;-67
2022/05/14 10:46:18;;;;;;;20.92;11.43;;;20.60;97.90;;;;;;5070297;28;20033;-65
2022/05/14 10:48:49;;;;;;;19.52;12.82;;;20.80;96.50;;;;;;5070794;28;20021;-65
2022/05/14 10:51:20;;;;;;;23.17;12.45;;;;;;;;;;5069536;28;20029;-66
2022/05/14 10:53:47;;;;;;;22.13;12.25;;;20.90;96.30;;;;;;5051103;28;20031;-65
2022/05/14 10:56:21;;;;;;;22.30;12.07;;;21.30;95.40;;;;;;5069293;28;20045;-66
2022/05/14 10:59:00;;;;;;;22.02;12.57;;;21.20;95.50;;;;;;5051357;28;20035;-66
2022/05/14 11:01:28;;;;;;;;;;;21.70;94.60;;;;;;5070165;28;20028;-67
2022/05/14 11:04:18;;;;;;;25.48;12.30;;;21.60;94.20;;;;;;5069742;28;19904;-66
2022/05/14 11:06:55;;;;;;;25.02;12.60;;;20.80;95.00;;;;;;5068930;28;20345;-66
2022/05/14 11:09:49;;;;;;;23.25;11.70;;;21.20;95.00;;;;;;5068951;28;20024;-66
2022/05/14 11:12:18;;;;;;;22.17;12.18;;;21.80;94.50;;;;;;5069317;28;20392;-65
2022/05/14 11:14:43;;;;;;;;;;;21.90;93.90;;;;;;5070536;28;20055;-65
2022/05/14 11:17:18;;;;;;;23.95;12.30;;;22.80;92.70;;;;;;5069575;28;20352;-66
2022/05/14 11:19:43;;;;;;;23.50;11.73;;;22.60;92.20;;;;;;5069767;28;20074;-66
2022/05/14 11:22:23;;;;;;;21.75;11.70;;;23.10;92.20;;;;;;5071921;28;20021;-65
2022/05/14 11:24:50;;;;;;;23.00;12.18;;;23.90;91.60;;;;;;5074218;28;20025;-66
2022/05/14 11:27:32;;;;;;;21.45;11.13;;;24.40;90.40;;;;;;5073444;28;20021;-66
2022/05/14 11:30:09;;;;;;;20.23;11.05;;;24.90;85.00;;;;;;5073110;28;20016;-66
2022/05/14 11:33:01;;;;;;;21.30;11.98;;;26.00;84.10;;;;;;5073939;28;20031;-65
2022/05/14 11:35:40;;;;;;;22.38;11.90;;;25.00;81.60;;;;;;5051701;28;20060;-65
2022/05/14 11:38:16;;;;;;;23.10;12.63;;;24.50;82.00;;;;;;5073631;28;20045;-65
2022/05/14 11:40:42;;;;;;;19.73;10.80;;;23.10;84.70;;;;;;5073734;28;20533;-66
2022/05/14 11:43:20;;;;;;;19.80;11.75;;;23.40;84.90;;;;;;5073807;28;20108;-65
2022/05/14 11:46:07;;;;;;;22.58;11.85;;;22.90;84.00;;;;;;5055843;28;20432;-66
2022/05/14 11:48:40;;;;;;;22.20;11.20;;;22.10;85.70;;;;;;5073587;28;20492;-66
2022/05/14 11:51:22;;;;;;;22.35;12.63;;;21.70;86.80;;;;;;5055848;28;20048;-65
2022/05/14 11:53:58;;;;;;;21.95;11.77;;;23.30;85.90;;;;;;5073471;28;20021;-65
2022/05/14 11:56:52;;;;;;;19.58;11.80;;;24.60;82.30;;;;;;5073661;28;20028;-65
2022/05/14 11:59:31;;;;;;;18.33;11.00;;;26.10;77.30;;;;;;5063817;28;20035;-65
2022/05/14 12:02:00;;;;;;;25.70;12.20;;;27.80;75.10;;;;;;5073643;28;20028;-66
2022/05/14 12:04:37;;;;;;;22.65;12.35;;;27.80;73.80;;;;;;5073755;28;20035;-66
2022/05/14 12:07:22;;;;;;;21.77;12.52;;;26.90;73.60;;;;;;5055697;28;20120;-66
2022/05/14 12:10:04;;;;;;;22.55;11.52;;;28.20;72.10;;;;;;5073543;28;20479;-66
2022/05/14 12:13:22;;;;;;;22.65;12.38;;;29.00;71.10;;;;;;5073836;28;20387;-66
2022/05/14 12:15:54;;;;;;;22.05;13.05;;;28.20;69.10;;;;;;4972823;28;20042;-66
2022/05/14 12:18:21;;;;;;;21.75;12.20;;;28.00;69.90;;;;;;4972570;28;20034;-66
2022/05/14 12:21:04;;;;;;;21.08;11.85;;;28.40;67.90;;;;;;5007306;28;20085;-66
